Hovedside
METAR-TAF:

METAR-TAF

Lufthavner :

Nyslott lufthavn

Nyslott, Finland

breddegrad: 61-57N, lengdegrad: 028-57E, høyde over havet: 95 m

Gjeldene værobservasjon

Denne rapporten ble laget for 28 minutter siden, klokken 03:50 UTC
Vind 3 kt fra Nordøst
Temperatur 2°C
Luftfuktighet 93%
Trykk 991 hPa
Sikt 10 km eller mer
Overskyet i en høyde av 300 ft

METAR: EFSA 240350Z AUTO 05003KT 9999 OVC003 02/01 Q0991

Tid: 07:18 (04:18 UTC)

Varsel

Denne rapporten ble laget for 1 time og 43 minutter siden, klokken 02:35 UTC
Varsel gyldig fra 24. klokken 03 UTC til 24. klokken 12 UTC
Vind 5 kt fra Nord-nordøst
Sikt 10 km eller mer
Brutte skyer i en høyde av 400 ft
Midlertidig
fra 24. klokken 04 UTC til 24. klokken 08 UTC
Spredte skyer i en høyde av 400 ft
Brutte skyer i en høyde av 2000 ft
Blir
fra 24. klokken 08 UTC til 24. klokken 10 UTC
Brutte skyer i en høyde av 2000 ft

TAF: EFSA 240235Z 2403/2412 03005KT 9999 BKN004 TEMPO 2404/2408 SCT004 BKN020 BECMG 2408/2410 BKN020

Værobservasjoner og værvarsel for over 4000 flyplasser (METAR- og TAF-rapporter).

Tilgjengelige stasjoner er representert av de røde og gule prikkene på kartet.

Hold musepekeren over prikken for å se navnet på stasjonen.

Klikk så for å se værobservasjoner og -varsler.

For å forandre kartet kan du klikke på den grønne knappen med svart kryss for å zoome inn, på den grønne knappen med strek for å zoome ut, eller på de grønne pilene for å se tilstøtende kart.


METAR-TAF: